UAE709 OMDB-FIMP
Flight info
| Callsign | UAE709 |
|---|---|
| Flight time | N/A |
| Altitude | 34000 |
| Route | ANVIX R401 GIDIS G783 UKRAG/N0488F330 L710 DEDSO/N0490F340 R401 SUHIL UM314 UDLET/N0487F350 UM314 PRA/N0486F360 UM313 ALRAN UT400 DUNRI DUNRI1E |
| Aircraft | B77W/H-SDE1E2E3FGHIJ2J3J4J5M1RWXY/LB1D1 |
Departure
| Time | 2026-04-23 22:30 |
|---|---|
| Airport | Dubai International Airport (OMDB) |
Arrival
| Time | N/A |
|---|---|
| Airport | Sir Seewoosagur Ramgoolam International Airport (FIMP) |
| Time | Latitude | Longitude | Altitude | Speed | Heading |
|---|---|---|---|---|---|
| 2026-04-23 21:35 | 25.24370 | 55.36931 | 27 ft | 0 kts | 31° |
| 2026-04-23 22:19 | 25.24366 | 55.36928 | 27 ft | 2 kts | 31° |
| 2026-04-23 22:19 | 25.24352 | 55.36919 | 23 ft | 2 kts | 31° |
| 2026-04-23 22:19 | 25.24339 | 55.36910 | 23 ft | 2 kts | 31° |
| 2026-04-23 22:19 | 25.24325 | 55.36900 | 26 ft | 2 kts | 31° |
| 2026-04-23 22:20 | 25.24312 | 55.36890 | 26 ft | 2 kts | 54° |
| 2026-04-23 22:20 | 25.24304 | 55.36875 | 25 ft | 2 kts | 71° |
| 2026-04-23 22:20 | 25.24300 | 55.36857 | 25 ft | 2 kts | 87° |
| 2026-04-23 22:20 | 25.24300 | 55.36846 | 25 ft | 0 kts | 112° |
| 2026-04-23 22:23 | 25.24296 | 55.36858 | 25 ft | 8 kts | 112° |
| 2026-04-23 22:23 | 25.24249 | 55.36952 | 27 ft | 15 kts | 125° |
| 2026-04-23 22:24 | 25.24194 | 55.37051 | 27 ft | 15 kts | 120° |
| 2026-04-23 22:24 | 25.24141 | 55.37151 | 27 ft | 15 kts | 120° |
| 2026-04-23 22:24 | 25.24085 | 55.37250 | 27 ft | 15 kts | 124° |
| 2026-04-23 22:24 | 25.24028 | 55.37348 | 27 ft | 15 kts | 120° |
| 2026-04-23 22:25 | 25.23977 | 55.37450 | 27 ft | 15 kts | 109° |
| 2026-04-23 22:25 | 25.23986 | 55.37563 | 27 ft | 15 kts | 63° |
| 2026-04-23 22:25 | 25.24064 | 55.37641 | 27 ft | 15 kts | 32° |
| 2026-04-23 22:25 | 25.24154 | 55.37702 | 27 ft | 15 kts | 31° |
| 2026-04-23 22:26 | 25.24242 | 55.37761 | 27 ft | 13 kts | 31° |
| 2026-04-23 22:26 | 25.24300 | 55.37800 | 27 ft | 9 kts | 33° |
| 2026-04-23 22:26 | 25.24323 | 55.37817 | 27 ft | 0 kts | 33° |
| 2026-04-23 22:26 | 25.24324 | 55.37818 | 27 ft | 1 kts | 33° |
| 2026-04-23 22:27 | 25.24393 | 55.37868 | 27 ft | 19 kts | 33° |
| 2026-04-23 22:27 | 25.24500 | 55.37949 | 27 ft | 19 kts | 36° |
| 2026-04-23 22:27 | 25.24593 | 55.38019 | 27 ft | 13 kts | 31° |
| 2026-04-23 22:27 | 25.24668 | 55.38069 | 27 ft | 13 kts | 31° |
| 2026-04-23 22:28 | 25.24728 | 55.38110 | 27 ft | 7 kts | 26° |
| 2026-04-23 22:28 | 25.24766 | 55.38091 | 27 ft | 0 kts | 302° |
| 2026-04-23 22:29 | 25.24800 | 55.38033 | 27 ft | 29 kts | 302° |
| 2026-04-23 22:29 | 25.25035 | 55.37610 | 27 ft | 98 kts | 301° |
| 2026-04-23 22:30 | 25.25500 | 55.36770 | 27 ft | 156 kts | 301° |
| 2026-04-23 22:30 | 25.26162 | 55.35607 | 46 ft | 197 kts | 303° |
| 2026-04-23 22:30 | 25.26881 | 55.34296 | 414 ft | 205 kts | 300° |
| 2026-04-23 22:30 | 25.27634 | 55.32904 | 820 ft | 216 kts | 301° |
| 2026-04-23 22:31 | 25.28439 | 55.31465 | 1356 ft | 220 kts | 301° |
| 2026-04-23 22:31 | 25.29145 | 55.30032 | 2070 ft | 207 kts | 284° |
| 2026-04-23 22:31 | 25.29105 | 55.28496 | 2561 ft | 201 kts | 248° |
| 2026-04-23 22:31 | 25.28548 | 55.27112 | 2956 ft | 202 kts | 244° |
| 2026-04-23 22:32 | 25.27946 | 55.25677 | 3257 ft | 214 kts | 245° |
| 2026-04-23 22:32 | 25.27283 | 55.24110 | 3372 ft | 232 kts | 245° |
| 2026-04-23 22:32 | 25.26582 | 55.22463 | 3692 ft | 241 kts | 245° |
| 2026-04-23 22:32 | 25.25866 | 55.20780 | 4203 ft | 242 kts | 244° |
| 2026-04-23 22:33 | 25.25148 | 55.19092 | 4778 ft | 243 kts | 244° |
| 2026-04-23 22:33 | 25.24256 | 55.17545 | 5294 ft | 239 kts | 220° |
| 2026-04-23 22:33 | 25.22770 | 55.16758 | 5728 ft | 242 kts | 185° |
| 2026-04-23 22:33 | 25.21101 | 55.16786 | 6128 ft | 247 kts | 178° |
| 2026-04-23 22:34 | 25.19379 | 55.17040 | 6492 ft | 255 kts | 161° |
| 2026-04-23 22:34 | 25.17914 | 55.18214 | 6760 ft | 275 kts | 127° |
| 2026-04-23 22:34 | 25.16971 | 55.20103 | 7009 ft | 287 kts | 119° |
| 2026-04-23 22:34 | 25.16060 | 55.22100 | 7493 ft | 294 kts | 120° |
| 2026-04-23 22:35 | 25.15115 | 55.24112 | 8088 ft | 297 kts | 120° |
| 2026-04-23 22:35 | 25.14152 | 55.26135 | 8702 ft | 299 kts | 121° |
| 2026-04-23 22:35 | 25.13174 | 55.28180 | 9254 ft | 304 kts | 121° |
| 2026-04-23 22:35 | 25.12192 | 55.30228 | 9811 ft | 307 kts | 121° |
| 2026-04-23 22:36 | 25.11188 | 55.32314 | 10394 ft | 309 kts | 121° |
| 2026-04-23 22:36 | 25.10213 | 55.34432 | 11047 ft | 310 kts | 118° |
| 2026-04-23 22:36 | 25.09325 | 55.36604 | 11732 ft | 311 kts | 117° |
| 2026-04-23 22:36 | 25.08444 | 55.38787 | 12472 ft | 312 kts | 117° |
| 2026-04-23 22:37 | 25.07550 | 55.40979 | 13212 ft | 314 kts | 117° |
| 2026-04-23 22:37 | 25.06662 | 55.43203 | 13814 ft | 323 kts | 116° |
| 2026-04-23 22:37 | 25.05753 | 55.45565 | 13971 ft | 346 kts | 116° |
| 2026-04-23 22:37 | 25.04790 | 55.48092 | 14135 ft | 368 kts | 115° |
| 2026-04-23 22:38 | 25.03779 | 55.50730 | 14296 ft | 389 kts | 115° |
| 2026-04-23 22:38 | 25.02703 | 55.53524 | 14654 ft | 400 kts | 116° |
| 2026-04-23 22:38 | 25.01251 | 55.56132 | 14956 ft | 403 kts | 136° |
| 2026-04-23 22:38 | 24.98968 | 55.57881 | 15546 ft | 401 kts | 160° |
| 2026-04-23 22:39 | 24.96277 | 55.58612 | 16305 ft | 398 kts | 175° |
| 2026-04-23 22:39 | 24.93516 | 55.58637 | 17008 ft | 398 kts | 184° |
| 2026-04-23 22:39 | 24.90736 | 55.58409 | 17616 ft | 404 kts | 186° |
| 2026-04-23 22:39 | 24.87923 | 55.58116 | 18268 ft | 408 kts | 187° |
| 2026-04-23 22:40 | 24.85126 | 55.57810 | 18854 ft | 411 kts | 187° |
| 2026-04-23 22:40 | 24.82275 | 55.57503 | 19464 ft | 414 kts | 187° |
| 2026-04-23 22:40 | 24.76484 | 55.56918 | 20575 ft | 422 kts | 187° |
| 2026-04-23 22:41 | 24.73540 | 55.56635 | 21125 ft | 427 kts | 187° |
| 2026-04-23 22:41 | 24.70571 | 55.56356 | 21676 ft | 430 kts | 187° |
| 2026-04-23 22:41 | 24.67576 | 55.56077 | 22228 ft | 433 kts | 187° |
| 2026-04-23 22:41 | 24.64561 | 55.55798 | 22750 ft | 437 kts | 187° |
| 2026-04-23 22:42 | 24.61560 | 55.55521 | 23251 ft | 440 kts | 188° |
| 2026-04-23 22:42 | 24.58496 | 55.55238 | 23681 ft | 444 kts | 188° |
| 2026-04-23 22:42 | 24.55404 | 55.54952 | 24067 ft | 448 kts | 188° |
| 2026-04-23 22:42 | 24.52285 | 55.54664 | 24456 ft | 452 kts | 188° |
| 2026-04-23 22:43 | 24.49135 | 55.54373 | 24827 ft | 456 kts | 188° |
| 2026-04-23 22:43 | 24.45964 | 55.54080 | 25199 ft | 460 kts | 188° |
| 2026-04-23 22:43 | 24.42763 | 55.53785 | 25576 ft | 463 kts | 188° |
| 2026-04-23 22:43 | 24.39539 | 55.53487 | 25967 ft | 467 kts | 188° |
| 2026-04-23 22:44 | 24.36289 | 55.53188 | 26344 ft | 470 kts | 188° |
| 2026-04-23 22:44 | 24.33020 | 55.52887 | 26718 ft | 474 kts | 188° |
| 2026-04-23 22:44 | 24.29724 | 55.52583 | 27073 ft | 477 kts | 188° |
| 2026-04-23 22:44 | 24.26444 | 55.52282 | 27424 ft | 481 kts | 188° |
| 2026-04-23 22:45 | 24.23097 | 55.51973 | 27676 ft | 486 kts | 188° |
| 2026-04-23 22:45 | 24.19708 | 55.51661 | 27956 ft | 491 kts | 188° |
| 2026-04-23 22:45 | 24.16298 | 55.51348 | 28294 ft | 493 kts | 188° |
| 2026-04-23 22:45 | 24.12870 | 55.51033 | 28648 ft | 496 kts | 188° |
| 2026-04-23 22:46 | 24.09420 | 55.50717 | 28811 ft | 501 kts | 188° |
| 2026-04-23 22:46 | 24.02449 | 55.50079 | 28859 ft | 501 kts | 188° |
| 2026-04-23 22:47 | 23.95605 | 55.49454 | 28873 ft | 498 kts | 188° |
| 2026-04-23 22:47 | 23.88698 | 55.48820 | 28872 ft | 498 kts | 188° |
| 2026-04-23 22:48 | 23.81888 | 55.47636 | 28870 ft | 493 kts | 199° |
| 2026-04-23 22:48 | 23.75299 | 55.45593 | 28873 ft | 492 kts | 200° |
| 2026-04-23 22:49 | 23.68739 | 55.43592 | 28865 ft | 494 kts | 199° |
| 2026-04-23 22:49 | 23.62109 | 55.41620 | 28878 ft | 494 kts | 199° |
| 2026-04-23 22:50 | 23.55451 | 55.39723 | 28865 ft | 496 kts | 194° |
| 2026-04-23 22:50 | 23.48504 | 55.39482 | 28879 ft | 506 kts | 177° |
| 2026-04-23 22:51 | 23.41658 | 55.41228 | 28865 ft | 512 kts | 167° |
| 2026-04-23 22:51 | 23.34817 | 55.43459 | 28879 ft | 514 kts | 166° |
| 2026-04-23 22:52 | 23.27943 | 55.45678 | 28875 ft | 516 kts | 167° |
| 2026-04-23 22:52 | 23.21040 | 55.47865 | 28878 ft | 517 kts | 167° |
| 2026-04-23 22:53 | 23.14178 | 55.50027 | 28874 ft | 517 kts | 167° |
| 2026-04-23 22:53 | 23.07265 | 55.52207 | 28881 ft | 518 kts | 167° |
| 2026-04-23 22:54 | 23.00350 | 55.54373 | 28879 ft | 517 kts | 167° |
| 2026-04-23 22:54 | 22.93447 | 55.56476 | 28863 ft | 516 kts | 167° |
| 2026-04-23 22:55 | 22.86582 | 55.58561 | 28899 ft | 516 kts | 167° |
| 2026-04-23 22:55 | 22.79665 | 55.60669 | 28891 ft | 517 kts | 167° |
| 2026-04-23 22:56 | 22.72736 | 55.62782 | 28882 ft | 518 kts | 167° |
| 2026-04-23 22:56 | 22.65758 | 55.64907 | 29171 ft | 524 kts | 167° |
| 2026-04-23 22:56 | 22.62249 | 55.65975 | 29611 ft | 523 kts | 167° |
| 2026-04-23 22:57 | 22.58752 | 55.67043 | 30072 ft | 522 kts | 168° |
| 2026-04-23 22:57 | 22.55306 | 55.68100 | 30471 ft | 521 kts | 168° |
| 2026-04-23 22:57 | 22.51823 | 55.69169 | 30869 ft | 520 kts | 168° |
| 2026-04-23 22:57 | 22.48348 | 55.70235 | 31267 ft | 519 kts | 168° |
| 2026-04-23 22:58 | 22.44876 | 55.71299 | 31645 ft | 518 kts | 168° |
| 2026-04-23 22:58 | 22.41401 | 55.72362 | 31899 ft | 520 kts | 168° |
| 2026-04-23 22:58 | 22.37915 | 55.73428 | 32183 ft | 521 kts | 168° |
| 2026-04-23 22:58 | 22.34431 | 55.74493 | 32542 ft | 520 kts | 169° |
| 2026-04-23 22:59 | 22.30957 | 55.75556 | 32905 ft | 519 kts | 169° |
| 2026-04-23 22:59 | 22.23955 | 55.77366 | 32903 ft | 518 kts | 177° |
| 2026-04-23 23:00 | 22.16868 | 55.78104 | 32886 ft | 510 kts | 181° |
| 2026-04-23 23:00 | 22.09779 | 55.78741 | 32911 ft | 512 kts | 180° |
| 2026-04-23 23:01 | 22.02665 | 55.79431 | 32905 ft | 514 kts | 180° |
| 2026-04-23 23:01 | 21.95546 | 55.80150 | 32896 ft | 515 kts | 180° |
| 2026-04-23 23:02 | 21.88469 | 55.80867 | 32881 ft | 514 kts | 180° |
| 2026-04-23 23:02 | 21.81349 | 55.81582 | 32893 ft | 514 kts | 180° |
| 2026-04-23 23:03 | 21.74227 | 55.82296 | 32898 ft | 514 kts | 180° |
| 2026-04-23 23:03 | 21.67104 | 55.83007 | 32896 ft | 514 kts | 180° |
| 2026-04-23 23:04 | 21.60026 | 55.83698 | 32894 ft | 514 kts | 180° |
| 2026-04-23 23:04 | 21.52892 | 55.84392 | 32897 ft | 515 kts | 180° |
| 2026-04-23 23:05 | 21.45749 | 55.85089 | 32891 ft | 516 kts | 180° |
| 2026-04-23 23:05 | 21.38597 | 55.85788 | 32896 ft | 516 kts | 180° |
| 2026-04-23 23:06 | 21.31440 | 55.86486 | 32896 ft | 517 kts | 180° |
| 2026-04-23 23:06 | 21.24329 | 55.87178 | 32898 ft | 517 kts | 180° |
| 2026-04-23 23:07 | 21.17170 | 55.87866 | 32898 ft | 517 kts | 180° |
| 2026-04-23 23:07 | 21.10012 | 55.88552 | 32875 ft | 516 kts | 180° |
| 2026-04-23 23:08 | 21.02853 | 55.89240 | 32896 ft | 516 kts | 180° |
| 2026-04-23 23:08 | 20.95707 | 55.89926 | 32898 ft | 517 kts | 180° |
| 2026-04-23 23:09 | 20.88590 | 55.90609 | 32900 ft | 517 kts | 180° |
| 2026-04-23 23:09 | 20.81426 | 55.91302 | 32894 ft | 517 kts | 180° |
| 2026-04-23 23:10 | 20.74274 | 55.92007 | 32893 ft | 516 kts | 180° |
| 2026-04-23 23:10 | 20.67130 | 55.92711 | 32895 ft | 515 kts | 180° |
| 2026-04-23 23:11 | 20.60041 | 55.93407 | 32896 ft | 515 kts | 180° |
| 2026-04-23 23:11 | 20.52917 | 55.94105 | 32892 ft | 514 kts | 180° |
| 2026-04-23 23:12 | 20.45808 | 55.94801 | 32893 ft | 513 kts | 180° |
| 2026-04-23 23:12 | 20.38706 | 55.95495 | 32893 ft | 512 kts | 180° |
| 2026-04-23 23:13 | 20.31650 | 55.96185 | 32897 ft | 512 kts | 180° |
| 2026-04-23 23:13 | 20.24526 | 55.96867 | 33202 ft | 515 kts | 180° |
| 2026-04-23 23:13 | 20.20963 | 55.97205 | 33593 ft | 513 kts | 180° |
| 2026-04-23 23:14 | 20.17418 | 55.97543 | 34017 ft | 510 kts | 180° |
| 2026-04-23 23:14 | 20.13893 | 55.97878 | 34319 ft | 509 kts | 181° |
| 2026-04-23 23:14 | 20.10364 | 55.98213 | 34549 ft | 509 kts | 181° |
| 2026-04-23 23:14 | 20.06837 | 55.98482 | 34749 ft | 508 kts | 184° |
| 2026-04-23 23:15 | 20.03301 | 55.98595 | 34815 ft | 510 kts | 185° |
| 2026-04-23 23:15 | 19.96249 | 55.98729 | 34901 ft | 509 kts | 185° |
| 2026-04-23 23:16 | 19.89189 | 55.98869 | 34904 ft | 506 kts | 185° |
| 2026-04-23 23:16 | 19.82165 | 55.99034 | 34904 ft | 504 kts | 185° |
| 2026-04-23 23:17 | 19.75160 | 55.99205 | 34897 ft | 503 kts | 185° |
| 2026-04-23 23:17 | 19.68199 | 55.99374 | 34912 ft | 504 kts | 184° |
| 2026-04-23 23:18 | 19.61163 | 55.99544 | 34917 ft | 507 kts | 184° |
| 2026-04-23 23:18 | 19.54100 | 55.99715 | 34918 ft | 509 kts | 184° |
| 2026-04-23 23:19 | 19.47011 | 55.99886 | 34917 ft | 510 kts | 184° |
| 2026-04-23 23:19 | 19.39951 | 56.00057 | 34918 ft | 511 kts | 184° |
| 2026-04-23 23:20 | 19.32838 | 56.00231 | 34920 ft | 511 kts | 184° |
| 2026-04-23 23:20 | 19.25726 | 56.00404 | 34919 ft | 511 kts | 184° |
| 2026-04-23 23:21 | 19.18628 | 56.00576 | 34905 ft | 510 kts | 184° |
| 2026-04-23 23:21 | 19.11539 | 56.00748 | 34918 ft | 509 kts | 184° |
| 2026-04-23 23:22 | 19.04505 | 56.00918 | 34923 ft | 509 kts | 184° |
| 2026-04-23 23:22 | 18.97475 | 56.00826 | 34928 ft | 502 kts | 191° |
| 2026-04-23 23:23 | 18.90669 | 55.99522 | 34920 ft | 494 kts | 200° |
| 2026-04-23 23:23 | 18.84021 | 55.97686 | 34930 ft | 494 kts | 200° |
| 2026-04-23 23:24 | 18.77353 | 55.95861 | 34929 ft | 496 kts | 200° |
| 2026-04-23 23:24 | 18.70697 | 55.94076 | 34936 ft | 498 kts | 200° |
| 2026-04-23 23:25 | 18.63974 | 55.92288 | 34927 ft | 499 kts | 200° |
| 2026-04-23 23:25 | 18.57245 | 55.90500 | 34925 ft | 499 kts | 200° |
| 2026-04-23 23:26 | 18.50514 | 55.88712 | 34925 ft | 499 kts | 200° |
| 2026-04-23 23:26 | 18.43837 | 55.86938 | 34925 ft | 498 kts | 200° |
| 2026-04-23 23:27 | 18.37120 | 55.85154 | 34926 ft | 498 kts | 200° |
| 2026-04-23 23:27 | 18.30409 | 55.83374 | 34915 ft | 497 kts | 200° |
| 2026-04-23 23:28 | 18.23742 | 55.81606 | 34931 ft | 498 kts | 200° |
| 2026-04-23 23:28 | 18.17021 | 55.79826 | 34936 ft | 498 kts | 200° |
| 2026-04-23 23:29 | 18.10292 | 55.78045 | 34933 ft | 499 kts | 200° |
| 2026-04-23 23:29 | 18.03551 | 55.76262 | 34933 ft | 500 kts | 200° |
| 2026-04-23 23:30 | 17.96820 | 55.74625 | 34928 ft | 504 kts | 194° |
| 2026-04-23 23:30 | 17.89836 | 55.73711 | 34931 ft | 507 kts | 192° |
| 2026-04-23 23:31 | 17.82828 | 55.72880 | 34921 ft | 507 kts | 192° |
| 2026-04-23 23:31 | 17.75825 | 55.72015 | 34926 ft | 506 kts | 193° |
| 2026-04-23 23:32 | 17.68841 | 55.71126 | 34920 ft | 506 kts | 193° |
| 2026-04-23 23:32 | 17.61904 | 55.70236 | 34923 ft | 505 kts | 193° |
| 2026-04-23 23:33 | 17.54927 | 55.69343 | 34923 ft | 505 kts | 193° |
| 2026-04-23 23:33 | 17.47952 | 55.68454 | 34923 ft | 505 kts | 193° |
| 2026-04-23 23:34 | 17.40980 | 55.67566 | 34919 ft | 505 kts | 192° |
| 2026-04-23 23:34 | 17.34059 | 55.66685 | 34924 ft | 504 kts | 192° |
| 2026-04-23 23:35 | 17.27091 | 55.65798 | 34923 ft | 504 kts | 192° |
| 2026-04-23 23:35 | 17.20119 | 55.64912 | 34924 ft | 505 kts | 192° |
| 2026-04-23 23:36 | 17.13148 | 55.64026 | 34923 ft | 505 kts | 192° |
| 2026-04-23 23:36 | 17.06227 | 55.63148 | 34925 ft | 505 kts | 192° |
| 2026-04-23 23:37 | 16.99266 | 55.62265 | 34931 ft | 505 kts | 192° |
| 2026-04-23 23:37 | 16.92294 | 55.61381 | 34932 ft | 505 kts | 192° |
| 2026-04-23 23:38 | 16.85317 | 55.60499 | 34934 ft | 505 kts | 192° |
| 2026-04-23 23:38 | 16.78389 | 55.59631 | 34934 ft | 505 kts | 192° |
| 2026-04-23 23:39 | 16.71411 | 55.58759 | 34942 ft | 505 kts | 192° |
| 2026-04-23 23:39 | 16.64436 | 55.57887 | 34937 ft | 505 kts | 192° |
| 2026-04-23 23:40 | 16.57459 | 55.57015 | 34938 ft | 505 kts | 192° |
| 2026-04-23 23:40 | 16.50481 | 55.56142 | 34948 ft | 505 kts | 192° |
| 2026-04-23 23:41 | 16.43548 | 55.55277 | 34934 ft | 505 kts | 192° |
| 2026-04-23 23:41 | 16.36565 | 55.54405 | 34940 ft | 505 kts | 192° |
| 2026-04-23 23:42 | 16.29587 | 55.53535 | 34937 ft | 505 kts | 192° |
| 2026-04-23 23:42 | 16.22600 | 55.52664 | 34931 ft | 505 kts | 192° |
| 2026-04-23 23:43 | 16.15668 | 55.51801 | 34942 ft | 505 kts | 192° |
| 2026-04-23 23:43 | 16.08684 | 55.50932 | 34950 ft | 505 kts | 192° |
| 2026-04-23 23:44 | 16.01706 | 55.50065 | 34947 ft | 505 kts | 192° |
| 2026-04-23 23:44 | 15.94740 | 55.49199 | 34943 ft | 505 kts | 192° |
| 2026-04-23 23:45 | 15.87811 | 55.48338 | 34936 ft | 505 kts | 192° |
| 2026-04-23 23:45 | 15.80832 | 55.47472 | 34953 ft | 505 kts | 192° |
| 2026-04-23 23:46 | 15.73849 | 55.46606 | 34950 ft | 505 kts | 192° |
| 2026-04-23 23:46 | 15.66861 | 55.45740 | 34944 ft | 506 kts | 192° |
| 2026-04-23 23:47 | 15.59920 | 55.44881 | 34946 ft | 506 kts | 192° |
| 2026-04-23 23:47 | 15.52930 | 55.44016 | 34950 ft | 506 kts | 192° |
| 2026-04-23 23:48 | 15.45937 | 55.43151 | 34944 ft | 506 kts | 192° |
| 2026-04-23 23:48 | 15.38943 | 55.42287 | 34952 ft | 506 kts | 192° |
| 2026-04-23 23:49 | 15.28502 | 55.40997 | 34941 ft | 506 kts | 192° |
| 2026-04-23 23:49 | 15.21510 | 55.40135 | 34950 ft | 506 kts | 192° |
| 2026-04-23 23:50 | 15.14520 | 55.39269 | 34950 ft | 506 kts | 192° |
| 2026-04-23 23:50 | 15.07523 | 55.38392 | 34949 ft | 506 kts | 192° |
| 2026-04-23 23:51 | 15.00528 | 55.37514 | 34942 ft | 507 kts | 192° |
| 2026-04-23 23:51 | 14.93584 | 55.36644 | 34945 ft | 507 kts | 192° |
| 2026-04-23 23:52 | 14.86586 | 55.35769 | 34948 ft | 507 kts | 192° |
| 2026-04-23 23:52 | 14.79577 | 55.34893 | 34946 ft | 507 kts | 192° |
| 2026-04-23 23:53 | 14.72568 | 55.34019 | 34949 ft | 507 kts | 192° |
| 2026-04-23 23:53 | 14.65559 | 55.33144 | 34947 ft | 507 kts | 192° |
| 2026-04-23 23:54 | 14.58598 | 55.32276 | 34948 ft | 507 kts | 192° |
| 2026-04-23 23:54 | 14.51590 | 55.31403 | 34944 ft | 507 kts | 192° |
| 2026-04-23 23:55 | 14.44583 | 55.30530 | 34940 ft | 507 kts | 192° |
| 2026-04-23 23:55 | 14.37577 | 55.29658 | 34945 ft | 507 kts | 192° |
| 2026-04-23 23:56 | 14.30628 | 55.28794 | 34944 ft | 506 kts | 192° |
| 2026-04-23 23:56 | 14.23634 | 55.27925 | 34944 ft | 506 kts | 192° |
| 2026-04-23 23:57 | 14.16639 | 55.27056 | 34947 ft | 506 kts | 192° |
| 2026-04-23 23:57 | 14.09648 | 55.26188 | 34937 ft | 506 kts | 192° |
| 2026-04-23 23:58 | 14.02705 | 55.25326 | 34946 ft | 506 kts | 192° |
| 2026-04-23 23:58 | 13.95725 | 55.24460 | 34947 ft | 506 kts | 192° |
| 2026-04-23 23:59 | 13.88734 | 55.23593 | 34945 ft | 506 kts | 192° |
| 2026-04-23 23:59 | 13.81742 | 55.22715 | 34942 ft | 506 kts | 192° |
| 2026-04-24 00:00 | 13.74794 | 55.21838 | 34943 ft | 506 kts | 192° |
| 2026-04-24 00:00 | 13.67797 | 55.20956 | 34943 ft | 507 kts | 192° |
| 2026-04-24 00:01 | 13.60799 | 55.20076 | 34942 ft | 507 kts | 191° |
| 2026-04-24 00:01 | 13.53798 | 55.19197 | 34932 ft | 507 kts | 191° |
| 2026-04-24 00:02 | 13.46793 | 55.18317 | 34935 ft | 507 kts | 191° |
| 2026-04-24 00:02 | 13.39837 | 55.17445 | 34943 ft | 507 kts | 191° |
| 2026-04-24 00:03 | 13.32826 | 55.16565 | 34942 ft | 508 kts | 191° |
| 2026-04-24 00:03 | 13.25812 | 55.15686 | 34939 ft | 508 kts | 191° |
| 2026-04-24 00:04 | 13.18791 | 55.14807 | 34935 ft | 508 kts | 191° |
| 2026-04-24 00:04 | 13.11810 | 55.13933 | 34940 ft | 509 kts | 191° |
| 2026-04-24 00:05 | 13.04785 | 55.13054 | 34939 ft | 509 kts | 191° |
| 2026-04-24 00:05 | 12.97755 | 55.12175 | 34941 ft | 509 kts | 191° |
| 2026-04-24 00:06 | 12.90720 | 55.11296 | 34936 ft | 509 kts | 191° |
| 2026-04-24 00:06 | 12.83731 | 55.10423 | 34938 ft | 509 kts | 191° |
| 2026-04-24 00:07 | 12.76697 | 55.09545 | 34939 ft | 509 kts | 191° |
| 2026-04-24 00:07 | 12.69663 | 55.08667 | 34938 ft | 509 kts | 191° |
| 2026-04-24 00:08 | 12.62637 | 55.07791 | 34940 ft | 509 kts | 191° |
| 2026-04-24 00:08 | 12.55658 | 55.06921 | 34938 ft | 509 kts | 191° |
| 2026-04-24 00:09 | 12.48629 | 55.06046 | 34939 ft | 509 kts | 191° |
| 2026-04-24 00:09 | 12.41607 | 55.05171 | 34937 ft | 508 kts | 191° |
| 2026-04-24 00:10 | 12.34583 | 55.04297 | 34935 ft | 508 kts | 191° |
| 2026-04-24 00:10 | 12.27609 | 55.03430 | 34936 ft | 508 kts | 191° |
| 2026-04-24 00:11 | 12.20596 | 55.02558 | 34937 ft | 508 kts | 191° |
| 2026-04-24 00:11 | 12.13589 | 55.01688 | 34937 ft | 507 kts | 191° |
| 2026-04-24 00:12 | 12.06581 | 55.00817 | 34931 ft | 507 kts | 191° |
| 2026-04-24 00:12 | 11.99629 | 55.00003 | 34941 ft | 508 kts | 188° |
| 2026-04-24 00:13 | 11.92605 | 54.99905 | 34935 ft | 510 kts | 183° |
| 2026-04-24 00:13 | 11.85510 | 54.99971 | 34926 ft | 510 kts | 183° |
| 2026-04-24 00:14 | 11.78419 | 55.00004 | 34926 ft | 509 kts | 184° |
| 2026-04-24 00:14 | 11.71336 | 55.00006 | 34933 ft | 509 kts | 184° |
| 2026-04-24 00:15 | 11.64303 | 55.00001 | 34934 ft | 509 kts | 184° |
| 2026-04-24 00:15 | 11.57226 | 55.00000 | 34934 ft | 508 kts | 184° |
| 2026-04-24 00:16 | 11.50157 | 55.00000 | 34933 ft | 508 kts | 184° |
| 2026-04-24 00:16 | 11.43086 | 55.00000 | 34929 ft | 508 kts | 184° |
| 2026-04-24 00:17 | 11.36072 | 55.00000 | 34931 ft | 507 kts | 183° |
| 2026-04-24 00:17 | 11.29013 | 55.00000 | 34937 ft | 507 kts | 183° |
| 2026-04-24 00:18 | 11.21951 | 55.00000 | 34933 ft | 507 kts | 183° |
| 2026-04-24 00:18 | 11.14892 | 55.00000 | 34929 ft | 507 kts | 183° |
| 2026-04-24 00:19 | 11.07884 | 55.00000 | 34930 ft | 507 kts | 183° |
| 2026-04-24 00:19 | 11.00835 | 55.00000 | 34929 ft | 507 kts | 183° |
| 2026-04-24 00:20 | 10.93793 | 55.00000 | 34928 ft | 506 kts | 183° |
| 2026-04-24 00:20 | 10.86746 | 55.00000 | 34926 ft | 506 kts | 183° |
| 2026-04-24 00:21 | 10.79750 | 55.00000 | 34927 ft | 506 kts | 183° |
| 2026-04-24 00:21 | 10.72708 | 55.00000 | 34929 ft | 506 kts | 183° |
| 2026-04-24 00:22 | 10.65672 | 55.00000 | 34926 ft | 506 kts | 183° |
| 2026-04-24 00:22 | 10.58634 | 55.00000 | 34924 ft | 506 kts | 183° |
| 2026-04-24 00:23 | 10.51599 | 55.00000 | 34924 ft | 505 kts | 183° |
| 2026-04-24 00:23 | 10.44617 | 55.00000 | 34925 ft | 505 kts | 183° |
| 2026-04-24 00:24 | 10.37592 | 55.00000 | 34929 ft | 505 kts | 183° |
| 2026-04-24 00:24 | 10.30566 | 55.00000 | 34928 ft | 505 kts | 183° |
| 2026-04-24 00:25 | 10.23543 | 55.00000 | 34925 ft | 505 kts | 183° |
| 2026-04-24 00:25 | 10.16568 | 55.00000 | 34926 ft | 504 kts | 183° |
| 2026-04-24 00:26 | 10.09548 | 55.00000 | 34923 ft | 504 kts | 183° |
| 2026-04-24 00:26 | 10.02535 | 55.00000 | 34923 ft | 504 kts | 183° |
| 2026-04-24 00:27 | 9.95533 | 55.00000 | 34923 ft | 504 kts | 183° |
| 2026-04-24 00:27 | 9.88524 | 55.00000 | 34922 ft | 504 kts | 183° |
| 2026-04-24 00:28 | 9.81563 | 55.00000 | 34924 ft | 503 kts | 183° |
| 2026-04-24 00:28 | 9.74557 | 55.00000 | 34921 ft | 503 kts | 183° |
| 2026-04-24 00:29 | 9.67556 | 55.00000 | 34921 ft | 503 kts | 183° |
| 2026-04-24 00:29 | 9.60553 | 55.00000 | 34920 ft | 503 kts | 183° |
| 2026-04-24 00:30 | 9.53597 | 55.00000 | 34921 ft | 503 kts | 183° |
| 2026-04-24 00:30 | 9.46593 | 55.00000 | 34921 ft | 503 kts | 183° |
| 2026-04-24 00:31 | 9.39590 | 55.00000 | 34921 ft | 503 kts | 183° |
| 2026-04-24 00:31 | 9.32589 | 55.00000 | 34918 ft | 503 kts | 183° |
| 2026-04-24 00:32 | 9.25632 | 55.00000 | 34917 ft | 503 kts | 182° |
| 2026-04-24 00:32 | 9.18630 | 55.00000 | 34921 ft | 503 kts | 182° |
| 2026-04-24 00:33 | 9.11629 | 55.00000 | 34921 ft | 503 kts | 182° |
| 2026-04-24 00:33 | 9.04624 | 55.00000 | 34920 ft | 503 kts | 182° |
| 2026-04-24 00:34 | 8.97677 | 55.00000 | 34917 ft | 503 kts | 182° |
| 2026-04-24 00:34 | 8.90673 | 55.00000 | 34919 ft | 503 kts | 182° |
| 2026-04-24 00:35 | 8.83676 | 55.00000 | 34918 ft | 503 kts | 182° |
| 2026-04-24 00:35 | 8.76676 | 55.00000 | 34915 ft | 503 kts | 182° |
| 2026-04-24 00:36 | 8.69678 | 55.00000 | 34915 ft | 503 kts | 182° |
| 2026-04-24 00:36 | 8.62732 | 55.00000 | 34919 ft | 503 kts | 182° |
| 2026-04-24 00:37 | 8.55739 | 55.00000 | 34917 ft | 503 kts | 182° |
| 2026-04-24 00:37 | 8.48740 | 55.00000 | 34913 ft | 503 kts | 182° |
| 2026-04-24 00:38 | 8.41749 | 55.00000 | 34913 ft | 503 kts | 182° |
| 2026-04-24 00:38 | 8.34753 | 55.00000 | 34904 ft | 503 kts | 182° |
| 2026-04-24 00:39 | 8.27804 | 55.00000 | 34907 ft | 503 kts | 182° |
| 2026-04-24 00:39 | 8.20813 | 55.00000 | 34909 ft | 503 kts | 182° |
| 2026-04-24 00:40 | 8.13815 | 55.00000 | 34910 ft | 503 kts | 182° |
| 2026-04-24 00:40 | 8.06868 | 55.00000 | 34906 ft | 503 kts | 182° |
| 2026-04-24 00:41 | 7.99890 | 55.00000 | 34909 ft | 502 kts | 182° |
| 2026-04-24 00:41 | 7.92902 | 55.00000 | 34907 ft | 502 kts | 182° |
| 2026-04-24 00:42 | 7.85916 | 55.00000 | 34908 ft | 502 kts | 182° |
| 2026-04-24 00:42 | 7.80113 | 55.00000 | 34910 ft | 502 kts | 182° |
| 2026-04-24 00:43 | 7.72000 | 55.00000 | 34906 ft | 501 kts | 182° |
| 2026-04-24 00:43 | 7.65026 | 55.00000 | 34905 ft | 501 kts | 182° |
| 2026-04-24 00:44 | 7.58045 | 55.00000 | 34904 ft | 501 kts | 182° |
| 2026-04-24 00:44 | 7.52248 | 55.00000 | 34903 ft | 501 kts | 182° |
| 2026-04-24 00:45 | 7.44141 | 55.00000 | 34901 ft | 501 kts | 182° |
| 2026-04-24 00:45 | 7.37164 | 55.00000 | 34904 ft | 501 kts | 182° |
| 2026-04-24 00:46 | 7.31366 | 55.00000 | 34905 ft | 501 kts | 182° |
| 2026-04-24 00:46 | 7.24387 | 55.00000 | 34902 ft | 501 kts | 182° |
| 2026-04-24 00:47 | 7.17409 | 55.00000 | 34901 ft | 502 kts | 182° |
| 2026-04-24 00:47 | 7.09300 | 55.00000 | 34906 ft | 501 kts | 182° |
| 2026-04-24 00:48 | 7.03503 | 55.00000 | 34903 ft | 501 kts | 182° |
| 2026-04-24 00:48 | 6.96541 | 55.00000 | 34906 ft | 501 kts | 182° |
| 2026-04-24 00:49 | 6.89567 | 55.00000 | 34903 ft | 501 kts | 182° |
| 2026-04-24 00:49 | 6.81473 | 55.00000 | 34903 ft | 500 kts | 182° |
| 2026-04-24 00:50 | 6.75692 | 55.00000 | 34900 ft | 500 kts | 182° |
| 2026-04-24 00:50 | 6.68738 | 55.00000 | 34901 ft | 499 kts | 182° |
| 2026-04-24 00:51 | 6.61792 | 55.00000 | 34901 ft | 499 kts | 182° |
| 2026-04-24 00:51 | 6.54847 | 55.00000 | 34902 ft | 499 kts | 182° |
| 2026-04-24 00:52 | 6.47904 | 55.00000 | 34905 ft | 499 kts | 182° |
| 2026-04-24 00:52 | 6.41012 | 55.00000 | 34904 ft | 499 kts | 182° |
| 2026-04-24 00:53 | 6.34070 | 55.00000 | 34901 ft | 499 kts | 182° |
| 2026-04-24 00:53 | 6.27126 | 55.00000 | 34900 ft | 499 kts | 182° |
| 2026-04-24 00:54 | 6.20180 | 55.00000 | 34898 ft | 499 kts | 182° |
| 2026-04-24 00:54 | 6.13282 | 55.00000 | 34905 ft | 499 kts | 182° |
| 2026-04-24 00:55 | 6.06340 | 55.00000 | 34901 ft | 499 kts | 182° |
| 2026-04-24 00:55 | 5.99405 | 55.00000 | 34899 ft | 499 kts | 182° |
| 2026-04-24 00:56 | 5.92465 | 55.00000 | 34901 ft | 499 kts | 182° |
| 2026-04-24 00:56 | 5.85524 | 55.00000 | 34902 ft | 498 kts | 182° |
| 2026-04-24 00:57 | 5.78641 | 55.00000 | 34901 ft | 498 kts | 182° |
| 2026-04-24 00:58 | 5.68251 | 55.00000 | 34902 ft | 498 kts | 182° |
| 2026-04-24 00:58 | 5.61324 | 55.00000 | 34896 ft | 497 kts | 182° |
| 2026-04-24 00:59 | 5.54402 | 55.00000 | 34898 ft | 497 kts | 181° |
| 2026-04-24 00:59 | 5.47525 | 55.00000 | 34900 ft | 498 kts | 181° |
| 2026-04-24 01:00 | 5.40596 | 55.00001 | 34902 ft | 498 kts | 181° |
| 2026-04-24 01:00 | 5.33671 | 55.00370 | 34904 ft | 499 kts | 177° |
| 2026-04-24 01:01 | 5.26747 | 55.00917 | 34901 ft | 499 kts | 176° |
| 2026-04-24 01:01 | 5.19870 | 55.01456 | 34901 ft | 499 kts | 177° |
| 2026-04-24 01:02 | 5.12943 | 55.01975 | 34899 ft | 499 kts | 177° |
| 2026-04-24 01:02 | 5.06017 | 55.02483 | 34899 ft | 499 kts | 177° |
| 2026-04-24 01:03 | 4.99102 | 55.02990 | 34897 ft | 499 kts | 177° |
| 2026-04-24 01:03 | 4.92181 | 55.03499 | 34902 ft | 499 kts | 177° |
| 2026-04-24 01:04 | 4.85310 | 55.04005 | 34901 ft | 498 kts | 177° |
| 2026-04-24 01:04 | 4.78394 | 55.04514 | 34901 ft | 498 kts | 177° |
| 2026-04-24 01:05 | 4.71481 | 55.05022 | 34901 ft | 498 kts | 177° |
| 2026-04-24 01:05 | 4.64570 | 55.05530 | 34900 ft | 498 kts | 177° |
| 2026-04-24 01:06 | 4.57660 | 55.06039 | 34903 ft | 498 kts | 177° |
| 2026-04-24 01:06 | 4.50790 | 55.06544 | 34901 ft | 499 kts | 177° |
| 2026-04-24 01:07 | 4.43870 | 55.07052 | 34902 ft | 499 kts | 177° |
| 2026-04-24 01:07 | 4.36942 | 55.07562 | 34904 ft | 499 kts | 177° |
| 2026-04-24 01:08 | 4.30016 | 55.08070 | 34902 ft | 499 kts | 176° |
| 2026-04-24 01:08 | 4.23131 | 55.08576 | 34902 ft | 500 kts | 177° |
| 2026-04-24 01:09 | 4.16194 | 55.09086 | 34901 ft | 500 kts | 177° |
| 2026-04-24 01:09 | 4.09254 | 55.09596 | 34904 ft | 500 kts | 177° |
| 2026-04-24 01:10 | 4.02356 | 55.10101 | 34898 ft | 501 kts | 176° |
| 2026-04-24 01:10 | 3.95418 | 55.10609 | 34903 ft | 501 kts | 176° |
| 2026-04-24 01:11 | 3.88462 | 55.11118 | 34903 ft | 502 kts | 176° |
| 2026-04-24 01:11 | 3.81494 | 55.11628 | 34901 ft | 502 kts | 176° |
| 2026-04-24 01:12 | 3.74525 | 55.12138 | 34898 ft | 502 kts | 176° |
| 2026-04-24 01:12 | 3.67597 | 55.12645 | 34899 ft | 503 kts | 176° |
| 2026-04-24 01:13 | 3.60623 | 55.13156 | 34902 ft | 503 kts | 176° |
| 2026-04-24 01:13 | 3.53641 | 55.13667 | 34901 ft | 503 kts | 176° |
| 2026-04-24 01:14 | 3.46700 | 55.14175 | 34901 ft | 503 kts | 176° |
| 2026-04-24 01:14 | 3.39716 | 55.14685 | 34901 ft | 503 kts | 176° |
| 2026-04-24 01:15 | 3.32729 | 55.15196 | 34899 ft | 503 kts | 176° |
| 2026-04-24 01:15 | 3.25748 | 55.15707 | 34898 ft | 503 kts | 176° |
| 2026-04-24 01:16 | 3.18810 | 55.16214 | 34899 ft | 503 kts | 176° |
| 2026-04-24 01:16 | 3.11834 | 55.16724 | 34899 ft | 503 kts | 176° |
| 2026-04-24 01:17 | 3.04854 | 55.17234 | 34900 ft | 503 kts | 176° |
| 2026-04-24 01:17 | 2.97879 | 55.17744 | 34902 ft | 503 kts | 176° |
| 2026-04-24 01:18 | 2.90894 | 55.18255 | 34899 ft | 503 kts | 176° |
| 2026-04-24 01:18 | 2.83953 | 55.18762 | 34899 ft | 504 kts | 176° |
| 2026-04-24 01:19 | 2.76961 | 55.19273 | 34898 ft | 504 kts | 176° |
| 2026-04-24 01:19 | 2.69967 | 55.19783 | 34897 ft | 504 kts | 176° |
| 2026-04-24 01:20 | 2.62970 | 55.20295 | 34899 ft | 504 kts | 176° |
| 2026-04-24 01:20 | 2.56021 | 55.20802 | 34899 ft | 504 kts | 176° |
| 2026-04-24 01:21 | 2.49020 | 55.21313 | 34898 ft | 504 kts | 176° |
| 2026-04-24 01:21 | 2.42033 | 55.21824 | 34895 ft | 503 kts | 176° |
| 2026-04-24 01:22 | 2.35057 | 55.22333 | 34894 ft | 502 kts | 176° |
| 2026-04-24 01:22 | 2.28143 | 55.22838 | 34895 ft | 501 kts | 176° |
| 2026-04-24 01:23 | 2.21198 | 55.23345 | 34895 ft | 500 kts | 176° |
| 2026-04-24 01:23 | 2.14258 | 55.23851 | 34895 ft | 500 kts | 176° |
| 2026-04-24 01:24 | 2.07318 | 55.24358 | 34898 ft | 500 kts | 176° |
| 2026-04-24 01:24 | 2.00379 | 55.24864 | 34899 ft | 500 kts | 176° |
| 2026-04-24 01:25 | 1.93494 | 55.25367 | 34898 ft | 501 kts | 176° |
| 2026-04-24 01:25 | 1.86543 | 55.25874 | 34896 ft | 501 kts | 176° |
| 2026-04-24 01:26 | 1.79588 | 55.26381 | 34900 ft | 501 kts | 176° |
| 2026-04-24 01:26 | 1.72676 | 55.26886 | 34900 ft | 502 kts | 176° |
| 2026-04-24 01:27 | 1.65710 | 55.27394 | 34898 ft | 502 kts | 176° |
| 2026-04-24 01:27 | 1.58738 | 55.27902 | 34899 ft | 502 kts | 176° |
| 2026-04-24 01:28 | 1.51770 | 55.28411 | 34896 ft | 502 kts | 176° |
| 2026-04-24 01:28 | 1.44851 | 55.28916 | 34895 ft | 502 kts | 176° |
| 2026-04-24 01:29 | 1.37886 | 55.29424 | 34896 ft | 502 kts | 176° |
| 2026-04-24 01:29 | 1.30925 | 55.29931 | 34896 ft | 502 kts | 176° |
| 2026-04-24 01:30 | 1.23965 | 55.30435 | 34896 ft | 501 kts | 176° |
| 2026-04-24 01:30 | 1.17057 | 55.30935 | 34895 ft | 501 kts | 176° |
| 2026-04-24 01:31 | 1.10105 | 55.31438 | 34899 ft | 501 kts | 176° |
| 2026-04-24 01:31 | 1.03155 | 55.31942 | 34898 ft | 501 kts | 176° |
| 2026-04-24 01:32 | 0.96224 | 55.32444 | 34895 ft | 500 kts | 176° |
| 2026-04-24 01:32 | 0.89324 | 55.32944 | 34891 ft | 501 kts | 176° |
| 2026-04-24 01:33 | 0.82366 | 55.33448 | 34899 ft | 502 kts | 176° |
| 2026-04-24 01:33 | 0.75395 | 55.33953 | 34897 ft | 503 kts | 176° |
| 2026-04-24 01:34 | 0.68413 | 55.34459 | 34896 ft | 503 kts | 176° |
| 2026-04-24 01:34 | 0.61474 | 55.34962 | 34888 ft | 504 kts | 176° |
| 2026-04-24 01:35 | 0.54473 | 55.35469 | 34895 ft | 505 kts | 176° |
| 2026-04-24 01:35 | 0.47465 | 55.35977 | 34894 ft | 505 kts | 176° |
| 2026-04-24 01:36 | 0.40449 | 55.36485 | 34892 ft | 506 kts | 176° |
| 2026-04-24 01:36 | 0.33431 | 55.36993 | 34890 ft | 506 kts | 176° |
| 2026-04-24 01:37 | 0.26464 | 55.37498 | 34890 ft | 505 kts | 176° |
| 2026-04-24 01:37 | 0.19449 | 55.38006 | 34888 ft | 505 kts | 176° |
| 2026-04-24 01:38 | 0.12436 | 55.38514 | 34887 ft | 505 kts | 176° |
| 2026-04-24 01:38 | 0.05431 | 55.39022 | 34887 ft | 505 kts | 176° |
| 2026-04-24 01:39 | -0.01514 | 55.39525 | 34891 ft | 504 kts | 176° |
| 2026-04-24 01:39 | -0.08516 | 55.40032 | 34894 ft | 504 kts | 176° |
| 2026-04-24 01:40 | -0.15513 | 55.40539 | 34891 ft | 504 kts | 176° |
| 2026-04-24 01:40 | -0.22509 | 55.41046 | 34890 ft | 504 kts | 176° |
| 2026-04-24 01:41 | -0.29459 | 55.41549 | 34888 ft | 504 kts | 176° |
| 2026-04-24 01:41 | -0.36456 | 55.42056 | 34890 ft | 504 kts | 176° |
| 2026-04-24 01:42 | -0.43447 | 55.42563 | 34883 ft | 504 kts | 176° |
| 2026-04-24 01:42 | -0.50434 | 55.43069 | 34885 ft | 503 kts | 176° |
| 2026-04-24 01:43 | -0.57372 | 55.43572 | 34885 ft | 503 kts | 176° |
| 2026-04-24 01:43 | -0.64352 | 55.44077 | 34882 ft | 503 kts | 176° |
| 2026-04-24 01:44 | -0.71333 | 55.44583 | 34888 ft | 503 kts | 176° |
| 2026-04-24 01:44 | -0.78311 | 55.45089 | 34884 ft | 503 kts | 176° |
| 2026-04-24 01:45 | -0.85236 | 55.45591 | 34886 ft | 502 kts | 176° |
| 2026-04-24 01:45 | -0.92208 | 55.46096 | 34885 ft | 502 kts | 176° |
| 2026-04-24 01:46 | -0.99185 | 55.46602 | 34883 ft | 503 kts | 176° |
| 2026-04-24 01:46 | -1.06152 | 55.47107 | 34887 ft | 503 kts | 176° |
| 2026-04-24 01:47 | -1.13133 | 55.47613 | 34885 ft | 503 kts | 176° |
| 2026-04-24 01:47 | -1.20075 | 55.48116 | 34885 ft | 504 kts | 176° |
| 2026-04-24 01:48 | -1.27069 | 55.48624 | 34884 ft | 504 kts | 176° |
| 2026-04-24 01:48 | -1.34060 | 55.49131 | 34882 ft | 504 kts | 176° |
| 2026-04-24 01:49 | -1.41046 | 55.49638 | 34881 ft | 503 kts | 176° |
| 2026-04-24 01:49 | -1.48032 | 55.50145 | 34884 ft | 503 kts | 176° |
| 2026-04-24 01:50 | -1.54970 | 55.50649 | 34878 ft | 503 kts | 176° |
| 2026-04-24 01:50 | -1.61946 | 55.51155 | 34879 ft | 503 kts | 176° |
| 2026-04-24 01:51 | -1.68925 | 55.51661 | 34882 ft | 503 kts | 176° |
| 2026-04-24 01:51 | -1.75856 | 55.52164 | 34882 ft | 503 kts | 176° |
| 2026-04-24 01:52 | -1.82834 | 55.52670 | 34885 ft | 502 kts | 176° |
| 2026-04-24 01:52 | -1.89801 | 55.53177 | 34874 ft | 502 kts | 176° |
| 2026-04-24 01:53 | -1.96767 | 55.53682 | 34879 ft | 501 kts | 176° |
| 2026-04-24 01:53 | -2.03662 | 55.54183 | 34879 ft | 501 kts | 176° |
| 2026-04-24 01:54 | -2.10614 | 55.54688 | 34883 ft | 501 kts | 176° |
| 2026-04-24 01:54 | -2.17563 | 55.55192 | 34879 ft | 501 kts | 176° |
| 2026-04-24 01:55 | -2.24513 | 55.55697 | 34876 ft | 501 kts | 176° |
| 2026-04-24 01:55 | -2.31464 | 55.56202 | 34880 ft | 501 kts | 176° |
| 2026-04-24 01:56 | -2.38374 | 55.56704 | 34880 ft | 501 kts | 176° |
| 2026-04-24 01:56 | -2.45332 | 55.57209 | 34881 ft | 502 kts | 176° |
| 2026-04-24 01:57 | -2.52295 | 55.57715 | 34875 ft | 502 kts | 177° |
| 2026-04-24 01:57 | -2.59263 | 55.58221 | 34878 ft | 502 kts | 177° |
| 2026-04-24 01:58 | -2.66192 | 55.58725 | 34876 ft | 503 kts | 177° |
| 2026-04-24 01:58 | -2.73172 | 55.59232 | 34877 ft | 503 kts | 177° |
| 2026-04-24 01:59 | -2.80161 | 55.59740 | 34876 ft | 503 kts | 177° |
| 2026-04-24 01:59 | -2.87149 | 55.60248 | 34878 ft | 504 kts | 177° |
| 2026-04-24 02:00 | -2.94089 | 55.60752 | 34877 ft | 504 kts | 177° |
| 2026-04-24 02:00 | -3.01062 | 55.61259 | 34877 ft | 503 kts | 177° |
| 2026-04-24 02:01 | -3.08047 | 55.61767 | 34876 ft | 503 kts | 177° |
| 2026-04-24 02:01 | -3.14987 | 55.62272 | 34878 ft | 503 kts | 177° |
| 2026-04-24 02:02 | -3.21972 | 55.62780 | 34877 ft | 503 kts | 177° |
| 2026-04-24 02:02 | -3.28959 | 55.63288 | 34882 ft | 504 kts | 177° |
| 2026-04-24 02:03 | -3.39455 | 55.64052 | 34879 ft | 504 kts | 177° |
| 2026-04-24 02:03 | -3.46410 | 55.64558 | 34882 ft | 505 kts | 177° |
| 2026-04-24 02:04 | -3.53419 | 55.65068 | 34883 ft | 505 kts | 176° |
| 2026-04-24 02:04 | -3.55745 | 55.65238 | 34885 ft | 505 kts | 176° |